sensor_id;sensor_type;location;lat;lon;timestamp;P1;durP1;ratioP1;P2;durP2;ratioP2
18013;SDS011;9132;47.946;10.394;2023-07-13T00:01:43;4.40;;;4.00;;
18013;SDS011;9132;47.946;10.394;2023-07-13T00:04:11;4.78;;;4.03;;
18013;SDS011;9132;47.946;10.394;2023-07-13T00:06:37;4.28;;;3.88;;
18013;SDS011;9132;47.946;10.394;2023-07-13T00:09:04;5.15;;;4.07;;
18013;SDS011;9132;47.946;10.394;2023-07-13T00:11:30;5.18;;;3.83;;
18013;SDS011;9132;47.946;10.394;2023-07-13T00:13:58;4.95;;;4.32;;
18013;SDS011;9132;47.946;10.394;2023-07-13T00:16:24;6.65;;;4.15;;
18013;SDS011;9132;47.946;10.394;2023-07-13T00:18:51;5.50;;;3.80;;
18013;SDS011;9132;47.946;10.394;2023-07-13T00:21:17;4.60;;;4.13;;
18013;SDS011;9132;47.946;10.394;2023-07-13T00:23:44;4.13;;;3.60;;
18013;SDS011;9132;47.946;10.394;2023-07-13T00:26:10;3.88;;;3.40;;
18013;SDS011;9132;47.946;10.394;2023-07-13T00:28:37;4.15;;;3.38;;
18013;SDS011;9132;47.946;10.394;2023-07-13T00:31:05;4.35;;;3.53;;
18013;SDS011;9132;47.946;10.394;2023-07-13T00:33:32;4.70;;;3.55;;
18013;SDS011;9132;47.946;10.394;2023-07-13T00:35:59;4.10;;;3.60;;
18013;SDS011;9132;47.946;10.394;2023-07-13T00:38:25;5.88;;;3.88;;
18013;SDS011;9132;47.946;10.394;2023-07-13T00:40:51;5.50;;;3.45;;
18013;SDS011;9132;47.946;10.394;2023-07-13T00:43:19;4.30;;;3.47;;
18013;SDS011;9132;47.946;10.394;2023-07-13T00:48:32;4.60;;;3.83;;
18013;SDS011;9132;47.946;10.394;2023-07-13T00:50:59;3.80;;;3.38;;
18013;SDS011;9132;47.946;10.394;2023-07-13T00:53:26;5.65;;;3.80;;
18013;SDS011;9132;47.946;10.394;2023-07-13T00:55:53;6.55;;;4.25;;
18013;SDS011;9132;47.946;10.394;2023-07-13T00:58:20;3.95;;;3.55;;
18013;SDS011;9132;47.946;10.394;2023-07-13T01:00:47;5.05;;;4.13;;
18013;SDS011;9132;47.946;10.394;2023-07-13T01:03:15;5.65;;;3.58;;
18013;SDS011;9132;47.946;10.394;2023-07-13T01:08:46;5.28;;;3.70;;
18013;SDS011;9132;47.946;10.394;2023-07-13T01:11:13;4.28;;;3.40;;
18013;SDS011;9132;47.946;10.394;2023-07-13T01:13:44;4.50;;;3.50;;
18013;SDS011;9132;47.946;10.394;2023-07-13T01:16:12;4.63;;;3.45;;
18013;SDS011;9132;47.946;10.394;2023-07-13T01:18:39;5.70;;;3.72;;
18013;SDS011;9132;47.946;10.394;2023-07-13T01:21:07;4.95;;;3.50;;
18013;SDS011;9132;47.946;10.394;2023-07-13T01:23:33;3.75;;;3.20;;
18013;SDS011;9132;47.946;10.394;2023-07-13T01:25:59;3.95;;;3.42;;
18013;SDS011;9132;47.946;10.394;2023-07-13T01:28:26;4.28;;;3.90;;
18013;SDS011;9132;47.946;10.394;2023-07-13T01:30:53;3.70;;;3.40;;
18013;SDS011;9132;47.946;10.394;2023-07-13T01:33:20;3.53;;;3.22;;
18013;SDS011;9132;47.946;10.394;2023-07-13T01:35:47;4.13;;;3.70;;
18013;SDS011;9132;47.946;10.394;2023-07-13T01:38:15;5.15;;;3.70;;
18013;SDS011;9132;47.946;10.394;2023-07-13T01:40:42;4.50;;;3.95;;
18013;SDS011;9132;47.946;10.394;2023-07-13T01:43:08;4.47;;;3.55;;
18013;SDS011;9132;47.946;10.394;2023-07-13T01:45:35;3.97;;;3.20;;
18013;SDS011;9132;47.946;10.394;2023-07-13T01:48:02;6.20;;;3.95;;
18013;SDS011;9132;47.946;10.394;2023-07-13T01:50:28;4.20;;;3.50;;
18013;SDS011;9132;47.946;10.394;2023-07-13T01:52:55;4.95;;;3.20;;
18013;SDS011;9132;47.946;10.394;2023-07-13T01:55:22;4.15;;;3.47;;
18013;SDS011;9132;47.946;10.394;2023-07-13T01:57:49;4.20;;;3.53;;
18013;SDS011;9132;47.946;10.394;2023-07-13T02:00:15;6.28;;;3.55;;
18013;SDS011;9132;47.946;10.394;2023-07-13T02:02:41;4.93;;;3.67;;
18013;SDS011;9132;47.946;10.394;2023-07-13T02:05:08;3.97;;;3.50;;
18013;SDS011;9132;47.946;10.394;2023-07-13T02:07:34;4.40;;;3.85;;
18013;SDS011;9132;47.946;10.394;2023-07-13T02:10:01;5.38;;;4.15;;
18013;SDS011;9132;47.946;10.394;2023-07-13T02:12:28;4.03;;;3.63;;
18013;SDS011;9132;47.946;10.394;2023-07-13T02:14:54;4.97;;;3.95;;
18013;SDS011;9132;47.946;10.394;2023-07-13T02:17:21;4.40;;;3.88;;
18013;SDS011;9132;47.946;10.394;2023-07-13T02:19:47;4.57;;;3.72;;
18013;SDS011;9132;47.946;10.394;2023-07-13T02:22:13;5.03;;;3.90;;
18013;SDS011;9132;47.946;10.394;2023-07-13T02:24:40;4.90;;;3.58;;
18013;SDS011;9132;47.946;10.394;2023-07-13T02:27:06;4.63;;;3.92;;
18013;SDS011;9132;47.946;10.394;2023-07-13T02:29:34;5.63;;;4.13;;
18013;SDS011;9132;47.946;10.394;2023-07-13T02:32:00;4.03;;;3.60;;
18013;SDS011;9132;47.946;10.394;2023-07-13T02:34:26;6.68;;;3.90;;
18013;SDS011;9132;47.946;10.394;2023-07-13T02:36:53;4.28;;;3.80;;
18013;SDS011;9132;47.946;10.394;2023-07-13T02:39:19;4.38;;;3.88;;
18013;SDS011;9132;47.946;10.394;2023-07-13T02:41:45;6.57;;;4.13;;
18013;SDS011;9132;47.946;10.394;2023-07-13T02:44:12;5.03;;;4.53;;
18013;SDS011;9132;47.946;10.394;2023-07-13T02:46:40;4.78;;;3.83;;
18013;SDS011;9132;47.946;10.394;2023-07-13T02:49:06;6.32;;;4.63;;
18013;SDS011;9132;47.946;10.394;2023-07-13T02:51:33;4.43;;;4.03;;
18013;SDS011;9132;47.946;10.394;2023-07-13T02:53:59;5.28;;;4.15;;
18013;SDS011;9132;47.946;10.394;2023-07-13T02:56:26;6.40;;;4.50;;
18013;SDS011;9132;47.946;10.394;2023-07-13T02:58:52;6.05;;;4.10;;
18013;SDS011;9132;47.946;10.394;2023-07-13T03:01:19;6.45;;;5.07;;
18013;SDS011;9132;47.946;10.394;2023-07-13T03:03:47;5.00;;;4.43;;
18013;SDS011;9132;47.946;10.394;2023-07-13T03:06:14;5.15;;;4.18;;
18013;SDS011;9132;47.946;10.394;2023-07-13T03:08:41;4.68;;;4.28;;
18013;SDS011;9132;47.946;10.394;2023-07-13T03:11:09;6.05;;;4.68;;
18013;SDS011;9132;47.946;10.394;2023-07-13T03:13:36;5.03;;;4.57;;
18013;SDS011;9132;47.946;10.394;2023-07-13T03:16:03;4.40;;;3.95;;
18013;SDS011;9132;47.946;10.394;2023-07-13T03:18:29;8.23;;;4.50;;
18013;SDS011;9132;47.946;10.394;2023-07-13T03:20:57;7.57;;;4.57;;
18013;SDS011;9132;47.946;10.394;2023-07-13T03:23:23;4.70;;;4.28;;
18013;SDS011;9132;47.946;10.394;2023-07-13T03:25:50;4.50;;;4.05;;
18013;SDS011;9132;47.946;10.394;2023-07-13T03:28:16;6.25;;;4.60;;
18013;SDS011;9132;47.946;10.394;2023-07-13T03:30:43;5.22;;;4.70;;
18013;SDS011;9132;47.946;10.394;2023-07-13T03:33:09;4.75;;;4.18;;
18013;SDS011;9132;47.946;10.394;2023-07-13T03:35:35;6.15;;;4.75;;
18013;SDS011;9132;47.946;10.394;2023-07-13T03:38:07;6.70;;;4.40;;
18013;SDS011;9132;47.946;10.394;2023-07-13T03:40:33;6.85;;;4.38;;
18013;SDS011;9132;47.946;10.394;2023-07-13T03:43:00;5.57;;;4.72;;
18013;SDS011;9132;47.946;10.394;2023-07-13T03:45:27;8.32;;;4.70;;
18013;SDS011;9132;47.946;10.394;2023-07-13T03:47:53;7.35;;;4.70;;
18013;SDS011;9132;47.946;10.394;2023-07-13T03:50:20;5.40;;;4.70;;
18013;SDS011;9132;47.946;10.394;2023-07-13T03:52:46;5.22;;;4.72;;
18013;SDS011;9132;47.946;10.394;2023-07-13T03:55:14;7.78;;;5.22;;
18013;SDS011;9132;47.946;10.394;2023-07-13T03:57:41;7.30;;;5.10;;
18013;SDS011;9132;47.946;10.394;2023-07-13T04:00:07;6.78;;;5.10;;
18013;SDS011;9132;47.946;10.394;2023-07-13T04:02:35;5.38;;;4.88;;
18013;SDS011;9132;47.946;10.394;2023-07-13T04:05:02;6.22;;;5.07;;
18013;SDS011;9132;47.946;10.394;2023-07-13T04:07:29;5.93;;;5.40;;
18013;SDS011;9132;47.946;10.394;2023-07-13T04:09:55;5.63;;;4.88;;
18013;SDS011;9132;47.946;10.394;2023-07-13T04:12:22;5.80;;;4.88;;
18013;SDS011;9132;47.946;10.394;2023-07-13T04:14:49;8.05;;;5.60;;
18013;SDS011;9132;47.946;10.394;2023-07-13T04:17:15;6.95;;;5.60;;
18013;SDS011;9132;47.946;10.394;2023-07-13T04:19:41;7.07;;;5.32;;
18013;SDS011;9132;47.946;10.394;2023-07-13T04:22:08;5.82;;;5.20;;
18013;SDS011;9132;47.946;10.394;2023-07-13T04:24:34;6.55;;;5.40;;
18013;SDS011;9132;47.946;10.394;2023-07-13T04:27:01;6.32;;;5.60;;
18013;SDS011;9132;47.946;10.394;2023-07-13T04:29:29;5.43;;;4.93;;
18013;SDS011;9132;47.946;10.394;2023-07-13T04:31:55;5.63;;;4.75;;
18013;SDS011;9132;47.946;10.394;2023-07-13T04:34:22;7.00;;;5.30;;
18013;SDS011;9132;47.946;10.394;2023-07-13T04:36:49;5.82;;;4.93;;
18013;SDS011;9132;47.946;10.394;2023-07-13T04:39:15;5.90;;;5.30;;
18013;SDS011;9132;47.946;10.394;2023-07-13T04:41:41;6.72;;;6.00;;
18013;SDS011;9132;47.946;10.394;2023-07-13T04:44:08;7.63;;;5.50;;
18013;SDS011;9132;47.946;10.394;2023-07-13T04:46:35;5.55;;;5.05;;
18013;SDS011;9132;47.946;10.394;2023-07-13T04:49:03;6.30;;;5.70;;
18013;SDS011;9132;47.946;10.394;2023-07-13T04:51:29;5.38;;;4.88;;
18013;SDS011;9132;47.946;10.394;2023-07-13T04:53:55;7.78;;;5.50;;
18013;SDS011;9132;47.946;10.394;2023-07-13T04:56:22;5.80;;;5.20;;
18013;SDS011;9132;47.946;10.394;2023-07-13T04:58:48;5.93;;;5.30;;
18013;SDS011;9132;47.946;10.394;2023-07-13T05:01:14;5.35;;;4.82;;
18013;SDS011;9132;47.946;10.394;2023-07-13T05:03:42;5.47;;;4.95;;
18013;SDS011;9132;47.946;10.394;2023-07-13T05:06:08;7.28;;;5.63;;
18013;SDS011;9132;47.946;10.394;2023-07-13T05:08:35;8.02;;;6.00;;
18013;SDS011;9132;47.946;10.394;2023-07-13T05:11:02;8.27;;;5.53;;
18013;SDS011;9132;47.946;10.394;2023-07-13T05:13:29;5.78;;;5.22;;
18013;SDS011;9132;47.946;10.394;2023-07-13T05:15:55;5.93;;;5.43;;
18013;SDS011;9132;47.946;10.394;2023-07-13T05:18:22;7.60;;;5.38;;
18013;SDS011;9132;47.946;10.394;2023-07-13T05:20:56;6.63;;;5.40;;
18013;SDS011;9132;47.946;10.394;2023-07-13T05:23:23;6.63;;;5.20;;
18013;SDS011;9132;47.946;10.394;2023-07-13T05:25:49;5.72;;;4.30;;
18013;SDS011;9132;47.946;10.394;2023-07-13T05:28:15;7.78;;;4.85;;
18013;SDS011;9132;47.946;10.394;2023-07-13T05:30:44;5.25;;;4.75;;
18013;SDS011;9132;47.946;10.394;2023-07-13T05:33:11;8.18;;;5.40;;
18013;SDS011;9132;47.946;10.394;2023-07-13T05:35:37;7.68;;;5.03;;
18013;SDS011;9132;47.946;10.394;2023-07-13T05:38:05;5.05;;;4.32;;
18013;SDS011;9132;47.946;10.394;2023-07-13T05:40:31;5.20;;;4.13;;
18013;SDS011;9132;47.946;10.394;2023-07-13T05:42:57;5.57;;;4.22;;
18013;SDS011;9132;47.946;10.394;2023-07-13T05:45:24;5.97;;;4.20;;
18013;SDS011;9132;47.946;10.394;2023-07-13T05:47:50;6.88;;;3.75;;
18013;SDS011;9132;47.946;10.394;2023-07-13T05:50:17;5.10;;;4.30;;
18013;SDS011;9132;47.946;10.394;2023-07-13T05:52:43;5.07;;;3.42;;
18013;SDS011;9132;47.946;10.394;2023-07-13T05:55:11;7.63;;;3.47;;
18013;SDS011;9132;47.946;10.394;2023-07-13T05:57:37;3.88;;;3.05;;
18013;SDS011;9132;47.946;10.394;2023-07-13T06:00:04;4.15;;;2.97;;
18013;SDS011;9132;47.946;10.394;2023-07-13T06:02:30;4.15;;;2.90;;
18013;SDS011;9132;47.946;10.394;2023-07-13T06:04:56;4.13;;;3.10;;
18013;SDS011;9132;47.946;10.394;2023-07-13T06:07:23;4.38;;;2.90;;
18013;SDS011;9132;47.946;10.394;2023-07-13T06:09:49;4.38;;;3.05;;
18013;SDS011;9132;47.946;10.394;2023-07-13T06:12:17;4.70;;;3.03;;
18013;SDS011;9132;47.946;10.394;2023-07-13T06:14:43;5.03;;;3.00;;
18013;SDS011;9132;47.946;10.394;2023-07-13T06:17:10;3.50;;;2.72;;
18013;SDS011;9132;47.946;10.394;2023-07-13T06:19:36;5.32;;;3.17;;
18013;SDS011;9132;47.946;10.394;2023-07-13T06:22:02;3.30;;;2.65;;
18013;SDS011;9132;47.946;10.394;2023-07-13T06:24:29;3.83;;;3.35;;
18013;SDS011;9132;47.946;10.394;2023-07-13T06:26:55;3.72;;;2.88;;
18013;SDS011;9132;47.946;10.394;2023-07-13T06:29:23;4.88;;;2.63;;
18013;SDS011;9132;47.946;10.394;2023-07-13T06:31:49;3.22;;;2.90;;
18013;SDS011;9132;47.946;10.394;2023-07-13T06:34:15;5.47;;;3.05;;
18013;SDS011;9132;47.946;10.394;2023-07-13T06:36:42;5.13;;;2.95;;
18013;SDS011;9132;47.946;10.394;2023-07-13T06:39:08;5.10;;;2.88;;
18013;SDS011;9132;47.946;10.394;2023-07-13T06:41:34;4.30;;;2.90;;
18013;SDS011;9132;47.946;10.394;2023-07-13T06:44:00;2.97;;;2.70;;
18013;SDS011;9132;47.946;10.394;2023-07-13T06:46:28;3.78;;;2.80;;
18013;SDS011;9132;47.946;10.394;2023-07-13T06:48:55;4.35;;;2.70;;
18013;SDS011;9132;47.946;10.394;2023-07-13T06:51:21;5.82;;;2.92;;
18013;SDS011;9132;47.946;10.394;2023-07-13T06:53:48;3.53;;;3.05;;
18013;SDS011;9132;47.946;10.394;2023-07-13T06:56:15;3.67;;;2.83;;
18013;SDS011;9132;47.946;10.394;2023-07-13T06:58:41;5.35;;;3.38;;
18013;SDS011;9132;47.946;10.394;2023-07-13T07:01:08;5.10;;;3.30;;
18013;SDS011;9132;47.946;10.394;2023-07-13T07:03:36;4.00;;;2.67;;
18013;SDS011;9132;47.946;10.394;2023-07-13T07:06:03;4.50;;;2.40;;
18013;SDS011;9132;47.946;10.394;2023-07-13T07:08:33;4.57;;;2.50;;
18013;SDS011;9132;47.946;10.394;2023-07-13T07:10:59;4.25;;;2.70;;
18013;SDS011;9132;47.946;10.394;2023-07-13T07:13:25;6.00;;;2.78;;
18013;SDS011;9132;47.946;10.394;2023-07-13T07:15:53;4.65;;;2.40;;
18013;SDS011;9132;47.946;10.394;2023-07-13T07:18:19;2.55;;;2.35;;
18013;SDS011;9132;47.946;10.394;2023-07-13T07:20:47;3.75;;;2.50;;
18013;SDS011;9132;47.946;10.394;2023-07-13T07:23:14;3.03;;;2.45;;
18013;SDS011;9132;47.946;10.394;2023-07-13T07:25:42;2.53;;;2.30;;
18013;SDS011;9132;47.946;10.394;2023-07-13T07:28:09;2.83;;;2.58;;
18013;SDS011;9132;47.946;10.394;2023-07-13T07:30:35;3.15;;;2.40;;
18013;SDS011;9132;47.946;10.394;2023-07-13T07:33:03;3.17;;;2.63;;
18013;SDS011;9132;47.946;10.394;2023-07-13T07:35:29;4.55;;;2.70;;
18013;SDS011;9132;47.946;10.394;2023-07-13T07:37:57;4.95;;;2.75;;
18013;SDS011;9132;47.946;10.394;2023-07-13T07:40:23;2.90;;;2.55;;
18013;SDS011;9132;47.946;10.394;2023-07-13T07:42:50;4.13;;;2.50;;
18013;SDS011;9132;47.946;10.394;2023-07-13T07:45:16;6.10;;;2.50;;
18013;SDS011;9132;47.946;10.394;2023-07-13T07:47:43;3.33;;;2.22;;
18013;SDS011;9132;47.946;10.394;2023-07-13T07:50:09;3.10;;;2.40;;
18013;SDS011;9132;47.946;10.394;2023-07-13T07:52:35;7.03;;;2.63;;
18013;SDS011;9132;47.946;10.394;2023-07-13T07:55:03;5.18;;;2.58;;
18013;SDS011;9132;47.946;10.394;2023-07-13T07:57:30;3.33;;;2.25;;
18013;SDS011;9132;47.946;10.394;2023-07-13T07:59:56;4.80;;;2.35;;
18013;SDS011;9132;47.946;10.394;2023-07-13T08:02:22;6.38;;;2.55;;
18013;SDS011;9132;47.946;10.394;2023-07-13T08:04:49;6.38;;;2.13;;
18013;SDS011;9132;47.946;10.394;2023-07-13T08:07:15;3.85;;;2.08;;
18013;SDS011;9132;47.946;10.394;2023-07-13T08:09:41;4.50;;;2.13;;
18013;SDS011;9132;47.946;10.394;2023-07-13T08:12:09;4.82;;;2.20;;
18013;SDS011;9132;47.946;10.394;2023-07-13T08:14:35;4.32;;;2.30;;
18013;SDS011;9132;47.946;10.394;2023-07-13T08:17:03;3.50;;;2.25;;
18013;SDS011;9132;47.946;10.394;2023-07-13T08:19:30;5.05;;;1.98;;
18013;SDS011;9132;47.946;10.394;2023-07-13T08:21:56;3.58;;;2.15;;
18013;SDS011;9132;47.946;10.394;2023-07-13T08:24:23;3.08;;;2.00;;
18013;SDS011;9132;47.946;10.394;2023-07-13T08:26:50;3.55;;;2.20;;
18013;SDS011;9132;47.946;10.394;2023-07-13T08:29:17;4.28;;;2.55;;
18013;SDS011;9132;47.946;10.394;2023-07-13T08:31:44;3.03;;;2.20;;
18013;SDS011;9132;47.946;10.394;2023-07-13T08:34:10;2.40;;;2.13;;
18013;SDS011;9132;47.946;10.394;2023-07-13T08:36:36;5.57;;;2.65;;
18013;SDS011;9132;47.946;10.394;2023-07-13T08:39:03;3.83;;;2.00;;
18013;SDS011;9132;47.946;10.394;2023-07-13T08:41:29;3.25;;;2.40;;
18013;SDS011;9132;47.946;10.394;2023-07-13T08:43:57;4.25;;;2.08;;
18013;SDS011;9132;47.946;10.394;2023-07-13T08:46:26;5.50;;;2.50;;
18013;SDS011;9132;47.946;10.394;2023-07-13T08:48:56;2.92;;;2.20;;
18013;SDS011;9132;47.946;10.394;2023-07-13T08:51:34;6.95;;;2.58;;
18013;SDS011;9132;47.946;10.394;2023-07-13T08:54:02;4.28;;;1.60;;
18013;SDS011;9132;47.946;10.394;2023-07-13T08:56:29;3.40;;;2.20;;
18013;SDS011;9132;47.946;10.394;2023-07-13T08:58:56;4.57;;;2.08;;
18013;SDS011;9132;47.946;10.394;2023-07-13T09:01:24;4.47;;;2.08;;
18013;SDS011;9132;47.946;10.394;2023-07-13T09:03:56;6.85;;;2.00;;
18013;SDS011;9132;47.946;10.394;2023-07-13T09:06:27;3.10;;;1.92;;
18013;SDS011;9132;47.946;10.394;2023-07-13T09:08:58;2.63;;;1.42;;
18013;SDS011;9132;47.946;10.394;2023-07-13T09:11:32;4.60;;;1.98;;
18013;SDS011;9132;47.946;10.394;2023-07-13T09:14:03;2.75;;;1.70;;
18013;SDS011;9132;47.946;10.394;2023-07-13T09:16:30;5.97;;;1.70;;
18013;SDS011;9132;47.946;10.394;2023-07-13T09:19:00;2.30;;;1.58;;
18013;SDS011;9132;47.946;10.394;2023-07-13T09:21:28;3.33;;;1.70;;
18013;SDS011;9132;47.946;10.394;2023-07-13T09:23:56;6.45;;;1.90;;
18013;SDS011;9132;47.946;10.394;2023-07-13T09:26:25;3.00;;;1.60;;
18013;SDS011;9132;47.946;10.394;2023-07-13T09:28:54;3.47;;;1.92;;
18013;SDS011;9132;47.946;10.394;2023-07-13T09:31:23;3.03;;;1.52;;
18013;SDS011;9132;47.946;10.394;2023-07-13T09:33:50;2.85;;;1.80;;
18013;SDS011;9132;47.946;10.394;2023-07-13T09:36:19;3.35;;;1.55;;
18013;SDS011;9132;47.946;10.394;2023-07-13T09:38:46;2.22;;;1.75;;
18013;SDS011;9132;47.946;10.394;2023-07-13T09:41:15;2.92;;;1.70;;
18013;SDS011;9132;47.946;10.394;2023-07-13T09:46:29;2.20;;;1.80;;
18013;SDS011;9132;47.946;10.394;2023-07-13T09:48:55;4.90;;;1.70;;
18013;SDS011;9132;47.946;10.394;2023-07-13T09:51:23;2.75;;;1.80;;
18013;SDS011;9132;47.946;10.394;2023-07-13T09:53:49;3.15;;;1.70;;
18013;SDS011;9132;47.946;10.394;2023-07-13T09:56:19;3.40;;;1.98;;
18013;SDS011;9132;47.946;10.394;2023-07-13T09:58:45;5.55;;;1.85;;
18013;SDS011;9132;47.946;10.394;2023-07-13T10:01:12;2.72;;;1.77;;
18013;SDS011;9132;47.946;10.394;2023-07-13T10:03:39;3.63;;;1.88;;
18013;SDS011;9132;47.946;10.394;2023-07-13T10:06:11;3.03;;;1.60;;
18013;SDS011;9132;47.946;10.394;2023-07-13T10:08:40;3.63;;;1.83;;
18013;SDS011;9132;47.946;10.394;2023-07-13T10:11:09;4.20;;;1.80;;
18013;SDS011;9132;47.946;10.394;2023-07-13T10:13:36;3.13;;;1.85;;
18013;SDS011;9132;47.946;10.394;2023-07-13T10:16:03;6.53;;;1.80;;
18013;SDS011;9132;47.946;10.394;2023-07-13T10:18:31;3.88;;;1.85;;
18013;SDS011;9132;47.946;10.394;2023-07-13T10:21:09;4.35;;;1.63;;
18013;SDS011;9132;47.946;10.394;2023-07-13T10:23:36;3.10;;;1.70;;
18013;SDS011;9132;47.946;10.394;2023-07-13T10:26:03;2.78;;;1.48;;
18013;SDS011;9132;47.946;10.394;2023-07-13T10:28:31;3.60;;;1.92;;
18013;SDS011;9132;47.946;10.394;2023-07-13T10:30:59;3.13;;;1.90;;
18013;SDS011;9132;47.946;10.394;2023-07-13T10:33:26;3.95;;;1.83;;
18013;SDS011;9132;47.946;10.394;2023-07-13T10:35:54;4.63;;;1.90;;
18013;SDS011;9132;47.946;10.394;2023-07-13T10:38:22;3.58;;;1.90;;
18013;SDS011;9132;47.946;10.394;2023-07-13T10:40:54;4.30;;;1.77;;
18013;SDS011;9132;47.946;10.394;2023-07-13T10:43:25;3.28;;;1.80;;
18013;SDS011;9132;47.946;10.394;2023-07-13T10:45:52;2.53;;;1.40;;
18013;SDS011;9132;47.946;10.394;2023-07-13T10:48:20;3.17;;;1.65;;
18013;SDS011;9132;47.946;10.394;2023-07-13T10:50:48;6.70;;;1.83;;
18013;SDS011;9132;47.946;10.394;2023-07-13T10:53:19;5.15;;;1.80;;
18013;SDS011;9132;47.946;10.394;2023-07-13T10:55:54;5.75;;;1.70;;
18013;SDS011;9132;47.946;10.394;2023-07-13T10:58:24;2.42;;;1.73;;
18013;SDS011;9132;47.946;10.394;2023-07-13T11:00:56;1.60;;;1.48;;
18013;SDS011;9132;47.946;10.394;2023-07-13T11:03:24;3.67;;;1.50;;
18013;SDS011;9132;47.946;10.394;2023-07-13T11:06:03;1.85;;;1.40;;
18013;SDS011;9132;47.946;10.394;2023-07-13T11:08:32;1.48;;;1.30;;
18013;SDS011;9132;47.946;10.394;2023-07-13T11:10:59;2.63;;;1.50;;
18013;SDS011;9132;47.946;10.394;2023-07-13T11:13:37;2.60;;;1.40;;
18013;SDS011;9132;47.946;10.394;2023-07-13T11:16:11;4.75;;;1.55;;
18013;SDS011;9132;47.946;10.394;2023-07-13T11:18:38;3.25;;;1.90;;
18013;SDS011;9132;47.946;10.394;2023-07-13T11:21:14;4.90;;;1.85;;
18013;SDS011;9132;47.946;10.394;2023-07-13T11:23:41;3.17;;;1.38;;
18013;SDS011;9132;47.946;10.394;2023-07-13T11:28:52;3.47;;;1.50;;
18013;SDS011;9132;47.946;10.394;2023-07-13T11:31:18;5.30;;;1.65;;
18013;SDS011;9132;47.946;10.394;2023-07-13T11:33:52;3.88;;;1.50;;
18013;SDS011;9132;47.946;10.394;2023-07-13T11:36:18;4.35;;;1.85;;
18013;SDS011;9132;47.946;10.394;2023-07-13T11:38:49;3.17;;;2.38;;
18013;SDS011;9132;47.946;10.394;2023-07-13T11:41:18;2.90;;;1.73;;
18013;SDS011;9132;47.946;10.394;2023-07-13T11:43:45;4.45;;;1.90;;
18013;SDS011;9132;47.946;10.394;2023-07-13T11:46:18;3.83;;;1.80;;
18013;SDS011;9132;47.946;10.394;2023-07-13T11:48:46;3.13;;;1.70;;
18013;SDS011;9132;47.946;10.394;2023-07-13T11:51:15;4.93;;;2.10;;
18013;SDS011;9132;47.946;10.394;2023-07-13T11:53:44;3.80;;;2.15;;
18013;SDS011;9132;47.946;10.394;2023-07-13T11:56:11;3.03;;;1.90;;
18013;SDS011;9132;47.946;10.394;2023-07-13T11:58:38;3.28;;;1.73;;
18013;SDS011;9132;47.946;10.394;2023-07-13T12:01:05;7.22;;;2.17;;
18013;SDS011;9132;47.946;10.394;2023-07-13T12:03:33;4.93;;;1.90;;
18013;SDS011;9132;47.946;10.394;2023-07-13T12:06:01;5.22;;;2.00;;
18013;SDS011;9132;47.946;10.394;2023-07-13T12:08:28;4.28;;;1.92;;
18013;SDS011;9132;47.946;10.394;2023-07-13T12:11:02;3.67;;;1.73;;
18013;SDS011;9132;47.946;10.394;2023-07-13T12:13:34;4.38;;;1.80;;
18013;SDS011;9132;47.946;10.394;2023-07-13T12:16:01;5.53;;;1.60;;
18013;SDS011;9132;47.946;10.394;2023-07-13T12:18:28;2.80;;;2.00;;
18013;SDS011;9132;47.946;10.394;2023-07-13T12:20:58;3.85;;;2.17;;
18013;SDS011;9132;47.946;10.394;2023-07-13T12:23:28;3.55;;;1.67;;
18013;SDS011;9132;47.946;10.394;2023-07-13T12:25:55;3.08;;;1.60;;
18013;SDS011;9132;47.946;10.394;2023-07-13T12:28:28;7.18;;;2.05;;
18013;SDS011;9132;47.946;10.394;2023-07-13T12:30:57;2.53;;;1.80;;
18013;SDS011;9132;47.946;10.394;2023-07-13T12:33:23;3.10;;;2.10;;
18013;SDS011;9132;47.946;10.394;2023-07-13T12:35:51;5.05;;;2.30;;
18013;SDS011;9132;47.946;10.394;2023-07-13T12:38:19;3.70;;;2.03;;
18013;SDS011;9132;47.946;10.394;2023-07-13T12:40:48;4.30;;;2.13;;
18013;SDS011;9132;47.946;10.394;2023-07-13T12:43:15;4.20;;;2.42;;
18013;SDS011;9132;47.946;10.394;2023-07-13T12:45:54;8.80;;;2.25;;
18013;SDS011;9132;47.946;10.394;2023-07-13T12:48:20;3.97;;;2.05;;
18013;SDS011;9132;47.946;10.394;2023-07-13T12:50:47;2.60;;;1.90;;
18013;SDS011;9132;47.946;10.394;2023-07-13T12:53:16;3.42;;;2.10;;
18013;SDS011;9132;47.946;10.394;2023-07-13T12:55:47;4.72;;;1.98;;
18013;SDS011;9132;47.946;10.394;2023-07-13T12:58:16;5.30;;;1.92;;
18013;SDS011;9132;47.946;10.394;2023-07-13T13:00:47;5.07;;;2.13;;
18013;SDS011;9132;47.946;10.394;2023-07-13T13:03:16;3.55;;;1.88;;
18013;SDS011;9132;47.946;10.394;2023-07-13T13:05:47;4.75;;;2.20;;
18013;SDS011;9132;47.946;10.394;2023-07-13T13:08:13;4.15;;;1.95;;
18013;SDS011;9132;47.946;10.394;2023-07-13T13:10:40;3.85;;;2.10;;
18013;SDS011;9132;47.946;10.394;2023-07-13T13:13:08;3.92;;;2.15;;
18013;SDS011;9132;47.946;10.394;2023-07-13T13:15:34;3.92;;;1.98;;
18013;SDS011;9132;47.946;10.394;2023-07-13T13:18:02;5.40;;;2.20;;
18013;SDS011;9132;47.946;10.394;2023-07-13T13:20:28;5.07;;;2.50;;
18013;SDS011;9132;47.946;10.394;2023-07-13T13:22:54;3.00;;;1.90;;
18013;SDS011;9132;47.946;10.394;2023-07-13T13:25:21;3.92;;;1.70;;
18013;SDS011;9132;47.946;10.394;2023-07-13T13:27:47;2.72;;;1.98;;
18013;SDS011;9132;47.946;10.394;2023-07-13T13:30:16;7.18;;;2.22;;
18013;SDS011;9132;47.946;10.394;2023-07-13T13:32:44;4.13;;;2.13;;
18013;SDS011;9132;47.946;10.394;2023-07-13T13:35:12;7.13;;;2.90;;
18013;SDS011;9132;47.946;10.394;2023-07-13T13:37:39;6.40;;;2.28;;
18013;SDS011;9132;47.946;10.394;2023-07-13T13:40:12;6.35;;;2.00;;
18013;SDS011;9132;47.946;10.394;2023-07-13T13:42:39;3.17;;;2.38;;
18013;SDS011;9132;47.946;10.394;2023-07-13T13:45:06;2.83;;;2.38;;
18013;SDS011;9132;47.946;10.394;2023-07-13T13:47:34;3.40;;;2.15;;
18013;SDS011;9132;47.946;10.394;2023-07-13T13:50:01;4.45;;;1.77;;
18013;SDS011;9132;47.946;10.394;2023-07-13T13:52:28;1.73;;;1.60;;
18013;SDS011;9132;47.946;10.394;2023-07-13T13:54:54;2.75;;;1.73;;
18013;SDS011;9132;47.946;10.394;2023-07-13T13:57:22;4.05;;;1.90;;
18013;SDS011;9132;47.946;10.394;2023-07-13T13:59:49;4.82;;;2.42;;
18013;SDS011;9132;47.946;10.394;2023-07-13T14:02:20;5.88;;;2.15;;
18013;SDS011;9132;47.946;10.394;2023-07-13T14:04:49;3.05;;;1.90;;
18013;SDS011;9132;47.946;10.394;2023-07-13T14:07:16;3.90;;;1.90;;
18013;SDS011;9132;47.946;10.394;2023-07-13T14:09:42;4.00;;;1.85;;
18013;SDS011;9132;47.946;10.394;2023-07-13T14:12:09;4.75;;;2.30;;
18013;SDS011;9132;47.946;10.394;2023-07-13T14:14:37;5.55;;;2.20;;
18013;SDS011;9132;47.946;10.394;2023-07-13T14:17:04;4.80;;;2.00;;
18013;SDS011;9132;47.946;10.394;2023-07-13T14:19:30;4.20;;;1.88;;
18013;SDS011;9132;47.946;10.394;2023-07-13T14:21:58;4.72;;;2.20;;
18013;SDS011;9132;47.946;10.394;2023-07-13T14:24:24;3.47;;;1.90;;
18013;SDS011;9132;47.946;10.394;2023-07-13T14:26:50;2.15;;;1.95;;
18013;SDS011;9132;47.946;10.394;2023-07-13T14:29:17;3.30;;;2.25;;
18013;SDS011;9132;47.946;10.394;2023-07-13T14:31:44;3.67;;;1.70;;
18013;SDS011;9132;47.946;10.394;2023-07-13T14:34:10;3.53;;;2.13;;
18013;SDS011;9132;47.946;10.394;2023-07-13T14:36:38;2.92;;;1.75;;
18013;SDS011;9132;47.946;10.394;2023-07-13T14:39:10;5.40;;;1.92;;
18013;SDS011;9132;47.946;10.394;2023-07-13T14:41:37;2.67;;;1.90;;
18013;SDS011;9132;47.946;10.394;2023-07-13T14:44:07;3.17;;;1.70;;
18013;SDS011;9132;47.946;10.394;2023-07-13T14:46:34;4.32;;;2.17;;
18013;SDS011;9132;47.946;10.394;2023-07-13T14:49:02;3.67;;;1.77;;
18013;SDS011;9132;47.946;10.394;2023-07-13T14:51:29;3.28;;;1.95;;
18013;SDS011;9132;47.946;10.394;2023-07-13T14:53:57;5.40;;;1.83;;
18013;SDS011;9132;47.946;10.394;2023-07-13T14:56:25;2.17;;;1.75;;
18013;SDS011;9132;47.946;10.394;2023-07-13T14:58:51;1.90;;;1.48;;
18013;SDS011;9132;47.946;10.394;2023-07-13T15:01:18;3.45;;;1.80;;